Flight Track Log - Related Links

Times and Time Zones

All times are in EDT time to prevent confusion due to time zone crossing. See the SKW2988 flight status page for this flight to view local times or setup timezone preferences in your user account.

Time Position Orientation Groundspeed Altitude Reporting Facility
EDT Latitude Longitude Course Direction KTS MPH feet Rate Location/Type
Mon 10:32:32 PM 34.1833 -118.3500 303° West 157 181 1,800  Level Southern California TRACON
Mon 10:32:47 PM 34.1858 -118.3547 303° West 157 181 2,000 2,416 Climbing Los Angeles Center
Mon 10:33:49 PM 34.1608 -118.4064 240° Southwest 246 283 4,900 3,317 Climbing Los Angeles Center
Mon 10:34:50 PM 34.2394 -118.4208 351° North 266 306 8,800 3,415 Climbing Los Angeles Center
Mon 10:35:52 PM 34.3142 -118.3914 18° North 280 322 11,900 2,613 Climbing Los Angeles Center
Mon 10:36:54 PM 34.3953 -118.3594 18° North 305 351 14,200 2,293 Climbing Los Angeles Center
Mon 10:37:55 PM 34.4786 -118.3089 27° Northeast 333 383 16,600 2,195 Climbing Los Angeles Center
Mon 10:38:57 PM 34.5408 -118.2103 53° Northeast 365 420 18,700 1,805 Climbing Los Angeles Center
Mon 10:39:58 PM 34.5944 -118.1250 53° Northeast 386 444 20,300 1,756 Climbing Los Angeles Center
Mon 10:41:00 PM 34.6406 -117.9758 69° East 406 467 22,300 1,463 Climbing Los Angeles Center
Mon 10:42:01 PM 34.6569 -117.8317 82° East 429 494 23,300 1,073 Climbing Los Angeles Center
Mon 10:43:03 PM 34.6761 -117.6517 83° East 448 516 24,500 1,073 Climbing Los Angeles Center
Mon 10:44:04 PM 34.6919 -117.4939 83° East 467 537 25,500 1,024 Climbing Los Angeles Center
Mon 10:45:06 PM 34.7078 -117.3358 83° East 475 547 26,600 732 Climbing Los Angeles Center
Mon 10:46:07 PM 34.7247 -117.1753 83° East 483 556 27,000 195 Climbing Los Angeles Center
Mon 10:47:09 PM 34.7419 -117.0042 83° East 511 588 27,000 145 Level Los Angeles Center
Mon 10:48:11 PM 34.7606 -116.8281 83° East 528 608 27,300 732 Climbing Los Angeles Center
Mon 10:49:12 PM 34.7867 -116.6225 81° East 517 595 28,500 836 Climbing Los Angeles Center
Mon 10:50:13 PM 34.8336 -116.4608 70° East 510 587 29,000 244 Climbing Los Angeles Center
Mon 10:51:15 PM 34.8842 -116.2939 70° East 528 608 29,000  Level Los Angeles Center
Mon 10:52:16 PM 34.9011 -116.1169 83° East 531 611 29,000  Level Los Angeles Center
Mon 10:53:18 PM 34.9203 -115.9397 82° East 530 610 29,000  Level Los Angeles Center
Mon 10:54:19 PM 34.9383 -115.7636 83° East 528 608 29,000  Level Los Angeles Center
Mon 10:55:21 PM 34.9572 -115.5875 82° East 526 605 29,000  Level Los Angeles Center
Mon 10:56:23 PM 34.9758 -115.4106 83° East 527 606 29,000  Level Los Angeles Center
Mon 10:57:24 PM 34.9936 -115.2364 83° East 523 602 29,000  Level Los Angeles Center
Mon 10:58:26 PM 35.0117 -115.0456 83° East 522 601 29,000  Level Los Angeles Center
Mon 10:59:27 PM 35.0322 -114.8358 83° East 522 601 29,000  Level Los Angeles Center
Mon 11:00:29 PM 35.0506 -114.6608 83° East 522 601 29,000  Level Los Angeles Center
Mon 11:01:30 PM 35.0669 -114.4861 83° East 521 600 29,000 -63 Level Los Angeles Center
Mon 11:03:40 PM 35.0119 -114.1133 100° East 512 589 28,800 -283 Descending Albuquerque Center
Mon 11:04:41 PM 34.9853 -113.9711 103° East 506 582 28,100 -776 Descending Albuquerque Center
Mon 11:05:36 PM 34.9558 -113.8083 102° East 499 574 27,300 -564 Descending Los Angeles Center
Mon 11:06:38 PM 34.9261 -113.6483 103° East 492 566 27,000 -537 Descending Los Angeles Center
Mon 11:07:39 PM 34.8961 -113.4881 103° East 490 564 26,200 -938 Descending Los Angeles Center
Mon 11:08:46 PM 34.8586 -113.2942 103° East 495 570 25,000 -563 Descending Albuquerque Center
Mon 11:09:47 PM 34.8292 -113.1383 103° East 485 558 25,000  Level Albuquerque Center
Mon 11:10:48 PM 34.8028 -112.9936 102° East 453 521 25,000  Level Albuquerque Center
Mon 11:11:50 PM 34.7758 -112.8536 103° East 437 503 25,000 -488 Level Albuquerque Center
Mon 11:12:51 PM 34.7478 -112.7144 104° East 431 496 24,000 -492 Descending Albuquerque Center
Mon 11:13:52 PM 34.7153 -112.5464 103° East 430 495 24,000 -393 Level Albuquerque Center
Mon 11:14:53 PM 34.6539 -112.4319 123° Southeast 420 483 23,200 -1,131 Descending Albuquerque Center
Mon 11:15:54 PM 34.5669 -112.3494 142° Southeast 407 468 21,700 -1,463 Descending Albuquerque Center
Mon 11:16:56 PM 34.4831 -112.2681 141° Southeast 398 458 20,200 -1,463 Descending Albuquerque Center
Mon 11:17:57 PM 34.3972 -112.2181 154° Southeast 370 426 18,700 -1,574 Descending Albuquerque Center
Mon 11:18:58 PM 34.3036 -112.1933 168° South 353 406 17,000 -1,525 Descending Albuquerque Center
Mon 11:19:59 PM 34.2114 -112.1697 168° South 346 398 15,600 -1,268 Descending Albuquerque Center
Mon 11:21:01 PM 34.1256 -112.1467 167° South 327 376 14,400 -1,366 Descending Albuquerque Center
Mon 11:22:02 PM 34.0331 -112.1242 169° South 291 335 12,800 -1,377 Descending Albuquerque Center
Mon 11:23:03 PM 33.9564 -112.1042 168° South 284 327 11,600 -984 Descending Albuquerque Center
Mon 11:24:04 PM 33.8819 -112.0844 168° South 280 322 10,800 -780 Descending Albuquerque Center
Mon 11:25:06 PM 33.8097 -112.0672 169° South 270 311 10,000 -390 Descending Albuquerque Center
Mon 11:26:07 PM 33.7394 -112.0500 168° South 263 303 10,000 -295 Level Albuquerque Center
Mon 11:27:08 PM 33.6706 -112.0369 171° South 256 295 9,400 -492 Descending Albuquerque Center
Mon 11:28:09 PM 33.6075 -112.0258 172° South 236 272 9,000 -780 Descending Albuquerque Center
Mon 11:29:11 PM 33.5383 -111.9878 155° Southeast 232 267 7,800 -976 Descending Albuquerque Center
Mon 11:30:12 PM 33.5286 -111.9069 98° East 248 285 7,000 -639 Descending Albuquerque Center
Mon 11:31:13 PM 33.5278 -111.8403 91° East 214 246 6,500 -488 Descending Albuquerque Center
Mon 11:32:15 PM 33.5269 -111.7778 91° East 194 223 6,000 -390 Descending Albuquerque Center
Mon 11:33:16 PM 33.4844 -111.7844 187° South 185 213 5,700 -738 Descending Albuquerque Center
Mon 11:34:17 PM 33.4625 -111.8372 244° Southwest 177 204 4,500 -1,279 Descending Albuquerque Center
Mon 11:35:18 PM 33.4428 -111.8892 246° West 174 200 3,100 -1,171 Descending Albuquerque Center
Mon 11:36:20 PM 33.4419 -111.9328 269° West 147 169 2,100 -829 Descending Albuquerque Center
Mon 11:37:21 PM 33.4422 -111.9742 270° West 133 153 1,400 -689 Descending Albuquerque Center

Login

Don't have an account? Register now (free) for customized features, flight alerts, and more!